Terminal Aerodrome Forecast
Issued by NWS

Home | Current Version | Previous Version | Text Only | Print | Product List | Glossary Off
Versions: 1 2 3 4 5 6 7 8 9 10 11 12 13 14 15 16 17 18 19 20 21

000
FTUS43 KICT 191032 AAA
TAFHUT
TAF AMD
KHUT 191032Z 1911/2006 17008KT 4SM BR SCT250
      TEMPO 1911/1913 1SM BR
     FM191300 16010KT 4SM BR OVC006
     FM191800 17012KT P6SM OVC012=

USA.gov is the U.S. government's official web portal to all federal, state and local government web resources and services.